Time;durP1;ratioP1;P1;durP2;ratioP2;P2;SDS_P1;SDS_P2;PMS_P1;PMS_P2;Temp;Humidity;BMP_temperature;BMP_pressure;BME280_temperature;BME280_humidity;BME280_pressure;Samples;Min_cycle;Max_cycle;Signal;HPM_P1;HPM_P2
2022/05/08 00:01:20;;;;;;;13.90;12.17;;;;;;;;;;10361354;28;20303;-77
2022/05/08 00:06:20;;;;;;;13.70;12.30;;;;;;;;;;10347703;28;20288;-76
2022/05/08 00:11:21;;;;;;;17.17;14.67;;;;;;;;;;10347091;28;20289;-78
2022/05/08 00:16:21;;;;;;;15.83;14.03;;;;;;;;;;10368380;28;20305;-77
2022/05/08 00:21:21;;;;;;;13.43;11.70;;;;;;;;;;10360141;28;20277;-77
2022/05/08 00:26:22;;;;;;;14.70;13.10;;;;;;;;;;10345823;28;20293;-77
2022/05/08 00:31:23;;;;;;;13.03;11.50;;;;;;;;;;10369407;28;20436;-78
2022/05/08 00:36:23;;;;;;;15.52;13.75;;;;;;;;;;10366668;28;20340;-78
2022/05/08 00:41:25;;;;;;;17.10;13.77;;;;;;;;;;10369608;28;20102;-78
2022/05/08 00:46:27;;;;;;;16.00;14.40;;;;;;;;;;10349660;28;20061;-77
2022/05/08 00:51:28;;;;;;;14.73;12.25;;;;;;;;;;10337855;28;20127;-77
2022/05/08 00:56:28;;;;;;;14.63;13.17;;;;;;;;;;10371147;28;20139;-79
2022/05/08 01:01:29;;;;;;;13.43;12.02;;;;;;;;;;10363222;28;20333;-77
2022/05/08 01:06:30;;;;;;;14.43;11.87;;;;;;;;;;10343503;28;20054;-77
2022/05/08 01:11:31;;;;;;;10.02;9.02;;;;;;;;;;10350771;28;20057;-76
2022/05/08 01:16:31;;;;;;;10.00;9.00;;;;;;;;;;10353729;28;20185;-78
2022/05/08 01:21:38;;;;;;;11.07;9.60;;;;;;;;;;10360580;28;20636;-77
2022/05/08 01:26:39;;;;;;;12.38;11.18;;;;;;;;;;10369105;28;20125;-76
2022/05/08 01:31:40;;;;;;;11.32;10.10;;;;;;;;;;10353997;28;20400;-76
2022/05/08 01:36:41;;;;;;;9.90;8.40;;;;;;;;;;10365824;28;20057;-77
2022/05/08 01:41:41;;;;;;;10.85;9.70;;;;;;;;;;10357106;28;20050;-77
2022/05/08 01:46:42;;;;;;;9.53;8.60;;;;;;;;;;10368624;28;20056;-77
2022/05/08 01:51:44;;;;;;;12.70;10.65;;;;;;;;;;10343968;28;20053;-76
2022/05/08 01:56:45;;;;;;;11.50;10.20;;;;;;;;;;10365356;28;20151;-76
2022/05/08 02:01:46;;;;;;;10.48;9.40;;;;;;;;;;10361489;28;20208;-76
2022/05/08 02:06:49;;;;;;;11.48;9.68;;;;;;;;;;10365295;28;20141;-77
2022/05/08 02:11:49;;;;;;;11.38;9.75;;;;;;;;;;10338718;28;20494;-77
2022/05/08 02:16:49;;;;;;;11.63;9.75;;;;;;;;;;10358943;28;20053;-77
2022/05/08 02:21:49;;;;;;;9.90;8.93;;;;;;;;;;10367526;28;20133;-79
2022/05/08 02:26:50;;;;;;;10.82;9.35;;;;;;;;;;10367128;28;20062;-77
2022/05/08 02:31:51;;;;;;;11.52;10.40;;;;;;;;;;10367629;28;20046;-78
2022/05/08 02:36:52;;;;;;;14.13;10.40;;;;;;;;;;10363915;28;20042;-78
2022/05/08 02:41:52;;;;;;;12.63;11.18;;;;;;;;;;10364575;28;20477;-76
2022/05/08 02:46:53;;;;;;;13.23;10.27;;;;;;;;;;10353357;28;20110;-76
2022/05/08 02:51:53;;;;;;;11.18;10.07;;;;;;;;;;10375448;28;20153;-76
2022/05/08 03:02:13;;;;;;;11.95;10.68;;;;;;;;;;10363355;28;20046;-77
2022/05/08 03:07:39;;;;;;;12.48;11.18;;;;;;;;;;10350300;28;20139;-77
2022/05/08 03:12:40;;;;;;;12.10;10.77;;;;;;;;;;10357979;28;20038;-75
2022/05/08 03:17:41;;;;;;;11.82;10.27;;;;;;;;;;10360151;28;20201;-78
2022/05/08 03:22:41;;;;;;;13.13;10.77;;;;;;;;;;10360721;28;20072;-76
2022/05/08 03:27:41;;;;;;;11.20;9.37;;;;;;;;;;10358859;28;20575;-78
2022/05/08 03:32:42;;;;;;;10.80;8.80;;;;;;;;;;10360127;28;20690;-77
2022/05/08 03:37:42;;;;;;;12.52;10.45;;;;;;;;;;10325183;28;20042;-78
2022/05/08 03:42:42;;;;;;;11.43;8.48;;;;;;;;;;10341998;28;20472;-76
2022/05/08 03:47:43;;;;;;;11.80;10.07;;;;;;;;;;10361577;28;20053;-77
2022/05/08 03:52:44;;;;;;;11.48;9.93;;;;;;;;;;10359074;28;20068;-77
2022/05/08 03:57:45;;;;;;;11.33;9.47;;;;;;;;;;10358594;28;20547;-77
2022/05/08 04:02:46;;;;;;;10.98;9.88;;;;;;;;;;10374245;28;20277;-78
2022/05/08 04:07:48;;;;;;;11.23;10.07;;;;;;;;;;10375116;28;20050;-77
2022/05/08 04:12:48;;;;;;;11.05;9.38;;;;;;;;;;10363081;28;20062;-77
2022/05/08 04:17:49;;;;;;;12.15;10.90;;;;;;;;;;10352219;28;20053;-77
2022/05/08 04:28:11;;;;;;;14.23;11.15;;;;;;;;;;10358526;28;20410;-76
2022/05/08 04:33:15;;;;;;;13.27;11.27;;;;;;;;;;10352141;28;20516;-78
2022/05/08 04:38:16;;;;;;;11.27;9.87;;;;;;;;;;10344750;28;20067;-76
2022/05/08 04:43:16;;;;;;;12.80;11.10;;;;;;;;;;10323348;28;20316;-77
2022/05/08 04:48:17;;;;;;;10.93;9.70;;;;;;;;;;10363403;28;20408;-76
2022/05/08 04:53:17;;;;;;;11.40;10.18;;;;;;;;;;10359278;28;20133;-77
2022/05/08 04:58:17;;;;;;;12.63;10.43;;;;;;;;;;10324969;28;20128;-77
2022/05/08 05:03:18;;;;;;;15.65;11.10;;;;;;;;;;10355333;28;20380;-76
2022/05/08 05:08:20;;;;;;;12.63;11.25;;;;;;;;;;10358654;28;20050;-75
2022/05/08 05:13:21;;;;;;;10.77;9.55;;;;;;;;;;10354089;28;20060;-76
2022/05/08 05:18:21;;;;;;;12.43;10.88;;;;;;;;;;10344267;28;20064;-75
2022/05/08 05:23:21;;;;;;;13.23;10.77;;;;;;;;;;10337988;28;20440;-76
2022/05/08 05:28:24;;;;;;;12.43;10.73;;;;;;;;;;10339091;28;20132;-77
2022/05/08 05:33:25;;;;;;;9.77;8.82;;;;;;;;;;10347739;28;20410;-79
2022/05/08 05:38:26;;;;;;;10.57;9.48;;;;;;;;;;10362744;28;20547;-76
2022/05/08 05:43:26;;;;;;;10.57;9.48;;;;;;;;;;10361935;28;20057;-77
2022/05/08 05:48:27;;;;;;;9.13;8.23;;;;;;;;;;10364196;28;20037;-76
2022/05/08 05:53:27;;;;;;;9.30;8.20;;;;;;;;;;10346534;28;20201;-77
2022/05/08 05:58:27;;;;;;;10.15;8.98;;;;;;;;;;10367097;28;20329;-76
2022/05/08 06:03:28;;;;;;;8.20;7.43;;;;;;;;;;10351705;28;20076;-77
2022/05/08 06:08:29;;;;;;;9.53;8.63;;;;;;;;;;10366662;28;20493;-79
2022/05/08 06:13:29;;;;;;;11.75;9.10;;;;;;;;;;10363409;28;20124;-78
2022/05/08 06:18:30;;;;;;;9.33;8.13;;;;;;;;;;10362857;28;20802;-76
2022/05/08 06:23:33;;;;;;;;;;;;;;;;;;10362925;28;20351;-75
2022/05/08 06:28:36;;;;;;;8.23;7.40;;;;;;;;;;10379763;28;19928;-77
2022/05/08 06:33:37;;;;;;;8.30;7.40;;;;;;;;;;10357215;28;20065;-76
2022/05/08 06:38:37;;;;;;;9.07;7.47;;;;;;;;;;10365687;28;20041;-76
2022/05/08 06:43:40;;;;;;;7.30;6.57;;;;;;;;;;10332823;28;20107;-77
2022/05/08 06:48:41;;;;;;;8.20;7.25;;;;;;;;;;10347629;28;20046;-76
2022/05/08 06:53:43;;;;;;;9.13;7.68;;;;;;;;;;10364164;28;20046;-76
2022/05/08 07:04:03;;;;;;;9.25;7.78;;;;;;;;;;10365568;28;20561;-78
2022/05/08 07:09:04;;;;;;;8.50;7.70;;;;;;;;;;10349999;28;20042;-79
2022/05/08 07:14:04;;;;;;;7.07;6.38;;;;;;;;;;10367644;28;20049;-79
2022/05/08 07:19:04;;;;;;;7.60;6.88;;;;;;;;;;10366069;28;20037;-76
2022/05/08 07:24:05;;;;;;;9.05;7.40;;;;;;;;;;10345821;28;20053;-77
2022/05/08 07:29:06;;;;;;;7.40;6.15;;;;;;;;;;10368857;28;20096;-76
2022/05/08 07:39:25;;;;;;;7.90;6.78;;;;;;;;;;10349120;28;20045;-76
2022/05/08 07:44:26;;;;;;;8.83;6.80;;;;;;;;;;10363087;28;20068;-78
2022/05/08 07:49:26;;;;;;;8.27;6.57;;;;;;;;;;10365359;28;20041;-78
2022/05/08 07:54:28;;;;;;;7.53;6.70;;;;;;;;;;10352456;28;20049;-79
2022/05/08 07:59:29;;;;;;;8.00;7.25;;;;;;;;;;10338450;28;20057;-77
2022/05/08 08:04:29;;;;;;;9.45;7.78;;;;;;;;;;10351658;28;20108;-77
2022/05/08 08:09:31;;;;;;;6.90;6.30;;;;;;;;;;10354062;28;20077;-78
2022/05/08 08:14:33;;;;;;;9.17;6.77;;;;;;;;;;10341195;28;20080;-77
2022/05/08 08:19:36;;;;;;;6.60;5.85;;;;;;;;;;10356704;28;20137;-77
2022/05/08 08:24:40;;;;;;;8.13;5.95;;;;;;;;;;10378522;28;20046;-78
2022/05/08 08:29:40;;;;;;;7.78;6.05;;;;;;;;;;10351893;28;20326;-79
2022/05/08 08:34:40;;;;;;;7.00;6.30;;;;;;;;;;10340850;28;20072;-78
2022/05/08 08:39:42;;;;;;;8.32;6.10;;;;;;;;;;10355249;28;20292;-78
2022/05/08 08:50:03;;;;;;;7.70;6.57;;;;;;;;;;10394942;28;20038;-80
2022/05/08 08:55:08;;;;;;;8.35;6.15;;;;;;;;;;10366549;28;20065;-78
2022/05/08 09:00:10;;;;;;;6.47;5.18;;;;;;;;;;10353546;28;20042;-79
2022/05/08 09:05:15;;;;;;;5.85;5.30;;;;;;;;;;10372552;28;20473;-78
2022/05/08 09:10:28;;;;;;;5.13;4.63;;;;;;;;;;10342833;28;20137;-78
2022/05/08 09:15:32;;;;;;;4.40;3.97;;;;;;;;;;10359909;28;20074;-79
2022/05/08 09:20:39;;;;;;;7.05;6.35;;;;;;;;;;10356222;28;20092;-78
2022/05/08 09:25:48;;;;;;;4.88;4.43;;;;;;;;;;10336592;28;20645;-78
2022/05/08 09:30:55;;;;;;;5.25;4.03;;;;;;;;;;10357875;28;20053;-77
2022/05/08 09:35:59;;;;;;;5.18;3.70;;;;;;;;;;10378709;28;20438;-78
2022/05/08 09:41:08;;;;;;;5.95;4.10;;;;;;;;;;10350562;28;20068;-78
2022/05/08 09:46:09;;;;;;;4.68;3.40;;;;;;;;;;10372284;28;20144;-78
2022/05/08 09:51:11;;;;;;;3.50;3.20;;;;;;;;;;10345132;28;20458;-78
2022/05/08 09:56:12;;;;;;;;;;;;;;;;;;10365118;28;20056;-77
2022/05/08 10:01:13;;;;;;;4.13;3.30;;;;;;;;;;10363522;28;19921;-78
2022/05/08 10:06:14;;;;;;;3.17;2.97;;;;;;;;;;10383928;28;20136;-79
2022/05/08 10:17:02;;;;;;;4.35;3.70;;;;;;;;;;10380534;28;20037;-79
2022/05/08 10:22:07;;;;;;;3.38;2.90;;;;;;;;;;10367571;28;20042;-79
2022/05/08 10:27:15;;;;;;;3.30;3.00;;;;;;;;;;10386159;28;20050;-79
2022/05/08 10:32:25;;;;;;;3.72;3.42;;;;;;;;;;10360696;28;20124;-78
2022/05/08 10:37:26;;;;;;;4.03;3.40;;;;;;;;;;10360697;28;20142;-79
2022/05/08 10:42:29;;;;;;;3.70;3.10;;;;;;;;;;10359419;28;20037;-78
2022/05/08 10:47:43;;;;;;;3.65;3.30;;;;;;;;;;10374686;28;20042;-78
2022/05/08 10:52:45;;;;;;;3.95;3.13;;;;;;;;;;10378891;28;20137;-78
2022/05/08 10:57:48;;;;;;;3.60;3.30;;;;;;;;;;10355757;28;20504;-78
2022/05/08 11:02:51;;;;;;;3.92;3.33;;;;;;;;;;10358344;28;20054;-79
2022/05/08 11:07:56;;;;;;;3.25;2.50;;;;;;;;;;10364603;28;20481;-78
2022/05/08 11:13:00;;;;;;;3.30;3.00;;;;;;;;;;10382760;28;20076;-79
2022/05/08 11:18:02;;;;;;;3.28;2.90;;;;;;;;;;10358578;28;20104;-79
2022/05/08 11:23:07;;;;;;;3.88;3.50;;;;;;;;;;10369442;28;20405;-78
2022/05/08 11:28:15;;;;;;;3.95;2.70;;;;;;;;;;10342410;28;20045;-79
2022/05/08 11:38:48;;;;;;;3.55;3.20;;;;;;;;;;10381629;28;20045;-79
2022/05/08 11:43:53;;;;;;;4.57;2.80;;;;;;;;;;10333752;28;20053;-79
2022/05/08 11:48:54;;;;;;;3.58;3.28;;;;;;;;;;10366809;28;20056;-78
2022/05/08 11:53:54;;;;;;;3.10;2.80;;;;;;;;;;10355369;28;20108;-78
2022/05/08 11:58:56;;;;;;;4.53;2.83;;;;;;;;;;10351399;28;20062;-79
2022/05/08 12:04:17;;;;;;;3.90;3.50;;;;;;;;;;10354444;28;20160;-79
2022/05/08 12:09:17;;;;;;;3.88;3.20;;;;;;;;;;10354665;28;20571;-78
2022/05/08 12:14:28;;;;;;;4.15;3.30;;;;;;;;;;10367497;28;20077;-79
2022/05/08 12:19:31;;;;;;;5.22;3.55;;;;;;;;;;10374253;28;20062;-79
2022/05/08 12:24:32;;;;;;;3.85;3.03;;;;;;;;;;10347684;28;20060;-78
2022/05/08 12:29:32;;;;;;;7.93;6.57;;;;;;;;;;10372521;28;20049;-78
2022/05/08 12:34:32;;;;;;;3.37;3.07;;;;;;;;;;10359326;28;20273;-78
2022/05/08 12:39:33;;;;;;;4.18;3.50;;;;;;;;;;10352878;28;20051;-78
2022/05/08 12:44:36;;;;;;;3.20;2.70;;;;;;;;;;10361935;28;20069;-78
2022/05/08 12:49:37;;;;;;;4.13;3.38;;;;;;;;;;10366974;28;20049;-79
2022/05/08 12:54:39;;;;;;;5.83;3.23;;;;;;;;;;10376157;28;20116;-78
2022/05/08 12:59:49;;;;;;;3.20;2.90;;;;;;;;;;10375069;28;20038;-78
2022/05/08 13:04:49;;;;;;;4.10;3.70;;;;;;;;;;10373024;28;20053;-78
2022/05/08 13:09:50;;;;;;;4.53;3.67;;;;;;;;;;10351932;28;20377;-79
2022/05/08 13:14:51;;;;;;;4.10;3.70;;;;;;;;;;10377545;28;20045;-79
2022/05/08 13:19:54;;;;;;;5.18;3.67;;;;;;;;;;10357605;28;20038;-78
2022/05/08 13:24:55;;;;;;;5.00;3.70;;;;;;;;;;10355294;28;20058;-77
2022/05/08 13:29:55;;;;;;;6.50;4.33;;;;;;;;;;10362216;28;20045;-78
2022/05/08 13:34:56;;;;;;;3.70;3.25;;;;;;;;;;10342238;28;20676;-78
2022/05/08 13:39:59;;;;;;;4.32;3.92;;;;;;;;;;10361411;28;20046;-78
2022/05/08 13:45:01;;;;;;;4.50;4.10;;;;;;;;;;10361808;28;20034;-78
2022/05/08 13:50:06;;;;;;;4.30;3.90;;;;;;;;;;10376364;28;20046;-80
2022/05/08 13:55:11;;;;;;;3.83;3.42;;;;;;;;;;10356421;28;20529;-79
2022/05/08 14:00:14;;;;;;;4.13;3.25;;;;;;;;;;10340252;28;20077;-78
2022/05/08 14:05:16;;;;;;;3.88;3.45;;;;;;;;;;10375346;28;20054;-79
2022/05/08 14:10:16;;;;;;;5.65;4.18;;;;;;;;;;10368709;28;20121;-78
2022/05/08 14:15:21;;;;;;;5.25;3.85;;;;;;;;;;10375523;28;20092;-79
2022/05/08 14:20:22;;;;;;;5.03;4.45;;;;;;;;;;10382767;28;20445;-78
2022/05/08 14:25:26;;;;;;;4.78;4.20;;;;;;;;;;10359560;28;20064;-78
2022/05/08 14:30:27;;;;;;;4.80;4.05;;;;;;;;;;10356569;28;20109;-78
2022/05/08 14:40:51;;;;;;;6.15;4.53;;;;;;;;;;10378215;28;20045;-77
2022/05/08 14:45:51;;;;;;;5.38;4.88;;;;;;;;;;10393844;28;20058;-77
2022/05/08 14:50:52;;;;;;;6.78;4.70;;;;;;;;;;10362844;28;20104;-78
2022/05/08 14:55:52;;;;;;;5.82;5.00;;;;;;;;;;10372549;28;20050;-79
2022/05/08 15:00:53;;;;;;;5.22;4.65;;;;;;;;;;10361046;28;20041;-79
2022/05/08 15:05:53;;;;;;;5.43;4.73;;;;;;;;;;10372286;28;20132;-77
2022/05/08 15:10:54;;;;;;;5.60;5.00;;;;;;;;;;10354602;28;20152;-78
2022/05/08 15:15:56;;;;;;;4.57;4.17;;;;;;;;;;10338897;28;20045;-79
2022/05/08 15:20:56;;;;;;;5.97;5.37;;;;;;;;;;10347608;28;20069;-77
2022/05/08 15:25:57;;;;;;;6.87;6.17;;;;;;;;;;10343675;28;20094;-79
2022/05/08 15:30:57;;;;;;;7.53;6.60;;;;;;;;;;10348014;28;20744;-79
2022/05/08 15:36:04;;;;;;;7.90;7.07;;;;;;;;;;10378106;28;20034;-78
2022/05/08 15:41:25;;;;;;;9.45;8.52;;;;;;;;;;10383885;28;20173;-78
2022/05/08 15:46:27;;;;;;;;;;;;;;;;;;10379062;28;20046;-79
2022/05/08 15:51:27;;;;;;;6.40;5.80;;;;;;;;;;10362015;28;19928;-80
2022/05/08 15:56:30;;;;;;;6.60;5.30;;;;;;;;;;10378709;28;20037;-82
2022/05/08 16:01:32;;;;;;;5.10;4.60;;;;;;;;;;10367987;28;20041;-79
2022/05/08 16:06:33;;;;;;;4.87;4.37;;;;;;;;;;10377082;28;20061;-78
2022/05/08 16:11:36;;;;;;;5.35;4.85;;;;;;;;;;10371907;28;20876;-80
2022/05/08 16:27:17;;;;;;;4.68;4.22;;;;;;;;;;10361550;28;20049;-80
2022/05/08 16:32:20;;;;;;;5.57;5.07;;;;;;;;;;10368215;28;20481;-80
2022/05/08 16:37:22;;;;;;;8.13;7.00;;;;;;;;;;10385036;28;20340;-78
2022/05/08 16:42:24;;;;;;;10.00;8.20;;;;;;;;;;10364162;28;20050;-80
2022/05/08 16:47:26;;;;;;;;;;;;;;;;;;10353953;28;20052;-78
2022/05/08 16:52:26;;;;;;;9.48;8.57;;;;;;;;;;10359175;28;19992;-79
2022/05/08 16:57:28;;;;;;;8.90;8.10;;;;;;;;;;10377608;28;20259;-80
2022/05/08 17:02:29;;;;;;;10.00;8.90;;;;;;;;;;10392254;28;20281;-78
2022/05/08 17:07:31;;;;;;;9.60;8.70;;;;;;;;;;10367901;28;20057;-78
2022/05/08 17:12:34;;;;;;;9.15;7.95;;;;;;;;;;10351142;28;20049;-78
2022/05/08 17:17:34;;;;;;;8.50;7.70;;;;;;;;;;10365278;28;20052;-80
2022/05/08 17:22:35;;;;;;;7.93;7.22;;;;;;;;;;10339387;28;20040;-79
2022/05/08 17:32:56;;;;;;;8.93;7.97;;;;;;;;;;10333227;28;20051;-78
2022/05/08 17:38:00;;;;;;;8.27;7.47;;;;;;;;;;10342170;28;20153;-79
2022/05/08 17:43:03;;;;;;;10.40;7.95;;;;;;;;;;10361626;28;20144;-78
2022/05/08 17:48:06;;;;;;;9.60;8.63;;;;;;;;;;10331593;28;20046;-78
2022/05/08 17:53:06;;;;;;;8.50;7.80;;;;;;;;;;10387290;28;20081;-80
2022/05/08 17:58:07;;;;;;;8.77;7.97;;;;;;;;;;10395195;28;20065;-78
2022/05/08 18:08:28;;;;;;;7.80;7.07;;;;;;;;;;10377834;28;20054;-78
2022/05/08 18:13:28;;;;;;;9.27;8.38;;;;;;;;;;10362622;28;20064;-79
2022/05/08 18:18:31;;;;;;;9.40;8.60;;;;;;;;;;10371011;28;20088;-80
2022/05/08 18:23:34;;;;;;;8.35;7.35;;;;;;;;;;10368951;28;20094;-80
2022/05/08 18:28:34;;;;;;;9.57;8.68;;;;;;;;;;10361282;28;20062;-77
2022/05/08 18:33:36;;;;;;;10.23;9.32;;;;;;;;;;10366002;28;20059;-77
2022/05/08 18:38:36;;;;;;;9.68;8.77;;;;;;;;;;10364010;28;20057;-77
2022/05/08 18:43:38;;;;;;;9.43;8.50;;;;;;;;;;10366798;28;20137;-78
2022/05/08 18:48:38;;;;;;;8.77;8.07;;;;;;;;;;10354970;28;20037;-78
2022/05/08 18:53:39;;;;;;;7.67;7.00;;;;;;;;;;10377897;28;20052;-79
2022/05/08 18:58:40;;;;;;;8.65;7.85;;;;;;;;;;10305006;28;20120;-81
2022/05/08 19:03:48;;;;;;;9.27;8.38;;;;;;;;;;10358018;28;20049;-80
2022/05/08 19:08:54;;;;;;;7.93;7.30;;;;;;;;;;10369291;28;20059;-79
2022/05/08 19:13:56;;;;;;;8.82;8.00;;;;;;;;;;10376951;28;20104;-80
2022/05/08 19:18:57;;;;;;;9.32;8.52;;;;;;;;;;10386596;28;20042;-80
2022/05/08 19:24:01;;;;;;;;;;;;;;;;;;10346634;28;20798;-79
2022/05/08 19:29:07;;;;;;;10.17;9.20;;;;;;;;;;10358175;28;20056;-79
2022/05/08 19:39:37;;;;;;;8.80;8.02;;;;;;;;;;10352604;28;19918;-78
2022/05/08 19:44:38;;;;;;;8.93;8.13;;;;;;;;;;10344948;28;20058;-78
2022/05/08 19:49:39;;;;;;;8.90;8.10;;;;;;;;;;10332900;28;20126;-79
2022/05/08 19:54:41;;;;;;;7.47;6.70;;;;;;;;;;10372128;28;20041;-79
2022/05/08 19:59:45;;;;;;;7.28;6.57;;;;;;;;;;10353966;28;20121;-79
2022/05/08 20:04:46;;;;;;;6.88;6.18;;;;;;;;;;10369777;28;20045;-77
2022/05/08 20:09:47;;;;;;;8.73;7.43;;;;;;;;;;10354001;28;20148;-77
2022/05/08 20:14:48;;;;;;;7.10;6.40;;;;;;;;;;10340410;28;20145;-79
2022/05/08 20:19:50;;;;;;;7.27;6.60;;;;;;;;;;10357211;28;20038;-80
2022/05/08 20:24:53;;;;;;;7.03;6.32;;;;;;;;;;10368497;28;20058;-79
2022/05/08 20:29:57;;;;;;;8.20;7.38;;;;;;;;;;10326412;28;20050;-78
2022/05/08 20:35:01;;;;;;;6.78;5.95;;;;;;;;;;10371107;28;20044;-80
2022/05/08 20:40:08;;;;;;;7.15;6.45;;;;;;;;;;10367360;28;20058;-78
2022/05/08 20:45:12;;;;;;;8.10;7.18;;;;;;;;;;10359279;28;20066;-81
2022/05/08 20:50:12;;;;;;;7.78;7.00;;;;;;;;;;10369025;28;20049;-83
2022/05/08 20:55:12;;;;;;;7.30;6.60;;;;;;;;;;10340126;28;20054;-80
2022/05/08 21:00:18;;;;;;;6.80;6.07;;;;;;;;;;10376690;28;20299;-78
2022/05/08 21:10:38;;;;;;;7.97;6.10;;;;;;;;;;10355409;28;20050;-80
2022/05/08 21:15:40;;;;;;;7.05;6.22;;;;;;;;;;10353848;28;20041;-79
2022/05/08 21:20:40;;;;;;;9.13;7.00;;;;;;;;;;10345281;28;20042;-79
2022/05/08 21:25:42;;;;;;;7.53;6.82;;;;;;;;;;10377852;28;20057;-78
2022/05/08 21:30:42;;;;;;;8.38;6.85;;;;;;;;;;10371172;28;20050;-79
2022/05/08 21:35:43;;;;;;;6.20;5.60;;;;;;;;;;10388867;28;20138;-79
2022/05/08 21:40:43;;;;;;;6.30;5.43;;;;;;;;;;10362993;28;20057;-79
2022/05/08 21:45:45;;;;;;;6.40;5.63;;;;;;;;;;10357110;28;20376;-79
2022/05/08 21:50:47;;;;;;;6.57;5.93;;;;;;;;;;10374129;28;20050;-79
2022/05/08 21:55:47;;;;;;;6.22;5.63;;;;;;;;;;10366563;28;20042;-78
2022/05/08 22:00:48;;;;;;;8.15;6.75;;;;;;;;;;10379321;28;20060;-78
2022/05/08 22:05:48;;;;;;;7.28;6.15;;;;;;;;;;10382705;28;20160;-76
2022/05/08 22:10:49;;;;;;;6.70;6.10;;;;;;;;;;10375849;28;20402;-79
2022/05/08 22:15:49;;;;;;;6.37;5.77;;;;;;;;;;10396022;28;20292;-79
2022/05/08 22:20:50;;;;;;;6.70;6.00;;;;;;;;;;10346081;28;20125;-77
2022/05/08 22:25:53;;;;;;;6.43;5.82;;;;;;;;;;10374630;28;20073;-78
2022/05/08 22:30:53;;;;;;;7.20;6.50;;;;;;;;;;10346391;28;20534;-80
2022/05/08 22:35:54;;;;;;;6.68;6.03;;;;;;;;;;10342957;28;20050;-77
2022/05/08 22:40:54;;;;;;;7.03;6.25;;;;;;;;;;10344424;28;20062;-78
2022/05/08 22:45:55;;;;;;;6.63;6.03;;;;;;;;;;10364981;28;20092;-79
2022/05/08 22:50:55;;;;;;;8.07;6.70;;;;;;;;;;10377907;28;20053;-78
2022/05/08 22:55:56;;;;;;;8.05;6.70;;;;;;;;;;10376093;28;20153;-78
2022/05/08 23:00:56;;;;;;;8.70;7.63;;;;;;;;;;10356633;28;20105;-78
2022/05/08 23:05:56;;;;;;;7.87;6.87;;;;;;;;;;10358814;28;20125;-78
2022/05/08 23:10:57;;;;;;;8.13;7.43;;;;;;;;;;10368988;28;20148;-78
2022/05/08 23:15:58;;;;;;;7.32;6.63;;;;;;;;;;10349882;28;20065;-79
2022/05/08 23:21:01;;;;;;;7.30;6.60;;;;;;;;;;10321871;28;20042;-79
2022/05/08 23:26:02;;;;;;;8.73;7.60;;;;;;;;;;10361121;28;20772;-78
2022/05/08 23:31:02;;;;;;;9.37;7.97;;;;;;;;;;10363568;28;20046;-78
2022/05/08 23:36:13;;;;;;;9.85;8.18;;;;;;;;;;10350997;28;20136;-79
2022/05/08 23:41:13;;;;;;;10.00;8.98;;;;;;;;;;10340404;28;20504;-78
2022/05/08 23:46:14;;;;;;;9.73;8.80;;;;;;;;;;10363200;28;20069;-79
2022/05/08 23:51:25;;;;;;;10.15;9.18;;;;;;;;;;10379422;28;20113;-78
2022/05/08 23:56:26;;;;;;;10.85;9.80;;;;;;;;;;10385191;28;20366;-79
